Terminal Aerodrome Forecast
Issued by NWS Goodland, KS

Home | Current Version | Previous Version | Text Only | Print | Product List | Glossary On
Versions: 1 2 3 4 5 6 7 8 9 10 11 12 13 14 15 16 17 18 19 20
974
FTUS43 KGLD 150520
TAFGLD
TAF
KGLD 150520Z 1506/1606 26008KT P6SM FEW250
     FM151900 24012KT P6SM FEW250
     FM160000 23008KT P6SM SKC=

USA.gov is the U.S. government's official web portal to all federal, state and local government web resources and services.